Antrim, NH

10:46 AM EDT on May 26, 2015 (GMT -0400)
Manchester | | Change Station
CLOSE
Current Station
Airport
Location: Manchester,
Elevation: 233 ft
Nearby Weather Stations

Elev 233 ft 42.93 °N, 71.44 °W | Updated 53 minutes ago

Clear
Clear
76 °F
Feels Like 76 °F
N
10
Wind Variable Wind from South

Today
High -- | Low -- °F
--% Chance of Precip.
Yesterday
High -- | Low -- °F
Precip. -- in
5:15 AM 8:15 PM
First Quarter, 58% visible
Pressure 30.13 in
Visibility 10.0 miles
Clouds Mostly Cloudy 11000 ft
Mostly Cloudy 20000 ft
Dew Point 61 °F
Humidity 60%
Rainfall 0.02 in
Snow Depth Not available.
UV 4 out of 12
Pollen 10.00 out of 12
Air Quality Not available.
Flu Activity Sporadic
METAR KMHT 261353Z 19009KT 10SM BKN110 BKN200 24/16 A3010 RMK AO2 SLP202 T02440161

More Conditions Fewer Conditions

Pressure 30.13 in
Visibility 10.0 miles
Clouds Mostly Cloudy 11000 ft
Mostly Cloudy 20000 ft
Dew Point 61 °F
Humidity 60%
Rainfall 0.02 in
Snow Depth Not available.
UV 4 out of 12
Pollen 10.00 out of 12
Air Quality Not available.
Flu Activity Sporadic
METAR KMHT 261353Z 19009KT 10SM BKN110 BKN200 24/16 A3010 RMK AO2 SLP202 T02440161

More Conditions Fewer Conditions

10-Day Weather Forecast

Almanac

Astronomy

May. 26, 2015 Rise Set
Actual Time
Civil Twilight
Nautical Twilight
Astronomical Twilight
Moon
Length of Visible Light
Length of Day
Tomorrow will be .
, % of the Moon is Illuminated

Today's Extremes

State Highs State Lows

Community

WunderPhotos

Upload Photos

1,824,344 photos uploaded!

WunderBlogs® & News

Nearby

Air Quality

  Air Quality AQ Index Pollutant
Not available.

Snow Depth

Station Depth Elevation

Earthquake Activity

City Distance Mag. Time & Date
Minimum magnitude displayed is 2.5.

Coastal Water Temperatures

Place Temperature

Stations

Nearby Weather Stations

Station Location Temp. Windchill Dew Point Humidity Wind Precip. Elev Updated Type